createdAt,value
2019-06-15T00:00:00.595Z,28.4
2019-06-15T00:05:00.572Z,28.2
2019-06-15T00:10:00.588Z,28.6
2019-06-15T00:15:00.590Z,28.2
2019-06-15T00:25:00.658Z,27.8
2019-06-15T00:30:00.641Z,28.2
2019-06-15T00:35:00.591Z,27.4
2019-06-15T00:40:00.598Z,28.4
2019-06-15T00:45:00.601Z,27.5
2019-06-15T00:50:00.678Z,28.0
2019-06-15T00:55:00.597Z,27.5
2019-06-15T01:00:00.667Z,27.1
2019-06-15T01:05:00.606Z,25.6
2019-06-15T01:10:00.612Z,26.9
2019-06-15T01:15:00.608Z,27.1
2019-06-15T01:20:00.695Z,26.6
2019-06-15T01:25:05.365Z,26.9
2019-06-15T01:30:00.642Z,27.4
2019-06-15T01:35:00.628Z,27.0
2019-06-15T01:40:00.755Z,25.8
2019-06-15T01:45:00.638Z,25.3
2019-06-15T01:50:00.713Z,25.6
2019-06-15T01:55:00.635Z,24.7
2019-06-15T02:00:00.777Z,22.8
2019-06-15T02:05:00.641Z,23.0
2019-06-15T02:10:00.656Z,23.4
2019-06-15T02:15:00.634Z,22.7
2019-06-15T02:25:00.678Z,23.3
2019-06-15T02:30:00.696Z,23.3
2019-06-15T02:35:00.620Z,23.1
2019-06-15T02:40:00.691Z,22.7
2019-06-15T02:45:00.595Z,22.9
2019-06-15T02:50:00.620Z,23.2
2019-06-15T02:55:00.600Z,22.9
2019-06-15T03:00:05.754Z,22.5
2019-06-15T03:05:00.609Z,23.0
2019-06-15T03:10:00.712Z,23.2
2019-06-15T03:15:00.638Z,23.0
2019-06-15T03:25:00.775Z,23.8
2019-06-15T03:30:00.717Z,24.4
2019-06-15T03:35:00.620Z,24.8
2019-06-15T03:40:00.797Z,25.4
2019-06-15T03:45:00.655Z,25.9
2019-06-15T03:50:00.735Z,25.2
2019-06-15T03:55:00.667Z,25.1
2019-06-15T04:00:00.946Z,24.6
2019-06-15T04:05:00.665Z,23.5
2019-06-15T04:10:00.738Z,24.3
2019-06-15T04:15:00.743Z,24.5
2019-06-15T04:20:00.808Z,24.1
2019-06-15T04:25:00.679Z,24.2
2019-06-15T04:30:00.686Z,24.6
2019-06-15T04:35:00.678Z,24.2
2019-06-15T04:40:00.753Z,24.9
2019-06-15T04:45:00.690Z,25.6
2019-06-15T04:50:00.817Z,25.7
2019-06-15T04:55:00.689Z,25.8
2019-06-15T05:00:00.698Z,26.1
2019-06-15T05:05:00.698Z,25.6
2019-06-15T05:10:00.762Z,24.6
2019-06-15T05:15:01.734Z,24.9
2019-06-15T05:20:00.870Z,25.2
2019-06-15T05:25:00.711Z,24.1
2019-06-15T05:30:00.717Z,24.8
2019-06-15T05:35:00.682Z,24.5
2019-06-15T05:40:05.801Z,24.4
2019-06-15T05:45:00.689Z,24.3
2019-06-15T05:50:00.851Z,24.9
2019-06-15T05:55:05.739Z,24.5
2019-06-15T06:00:00.811Z,24.5
2019-06-15T06:10:00.801Z,25.0
2019-06-15T06:15:00.737Z,24.8
2019-06-15T06:20:00.737Z,25.1
2019-06-15T06:25:00.745Z,25.3
2019-06-15T06:30:00.750Z,25.9
2019-06-15T06:35:00.744Z,25.6
2019-06-15T06:40:00.814Z,25.8
2019-06-15T06:45:00.753Z,25.6
2019-06-15T06:50:00.763Z,26.4
2019-06-15T06:55:00.757Z,26.5
2019-06-15T07:00:00.828Z,27.4
2019-06-15T07:05:00.772Z,27.8
2019-06-15T07:10:00.778Z,29.3
2019-06-15T07:15:00.771Z,30.6
2019-06-15T07:20:00.962Z,31.0
2019-06-15T07:25:00.818Z,30.7
2019-06-15T07:30:00.781Z,31.1
2019-06-15T07:35:00.758Z,30.2
2019-06-15T07:40:00.855Z,31.0
2019-06-15T07:45:00.791Z,32.1
2019-06-15T07:50:00.922Z,33.4
2019-06-15T07:55:00.803Z,34.4
2019-06-15T08:00:00.800Z,36.4
2019-06-15T08:05:00.804Z,37.1
2019-06-15T08:10:00.873Z,37.4
2019-06-15T08:15:00.774Z,38.4
2019-06-15T08:20:00.895Z,38.7
2019-06-15T08:25:00.852Z,38.8
2019-06-15T08:30:00.892Z,38.6
2019-06-15T08:35:00.821Z,39.3
2019-06-15T08:40:00.888Z,38.8
2019-06-15T08:45:00.822Z,40.8
2019-06-15T08:50:00.841Z,41.7
2019-06-15T08:55:00.981Z,41.3
2019-06-15T09:00:00.831Z,40.0
2019-06-15T09:05:00.839Z,38.7
2019-06-15T09:10:00.972Z,35.0
2019-06-15T09:15:00.839Z,31.8
2019-06-15T09:20:00.978Z,31.0
2019-06-15T09:25:00.846Z,28.4
2019-06-15T09:30:00.913Z,27.7
2019-06-15T09:35:00.849Z,26.8
2019-06-15T09:40:00.920Z,26.0
2019-06-15T09:45:00.861Z,23.9
2019-06-15T09:50:00.986Z,24.6
2019-06-15T09:55:00.829Z,24.9
2019-06-15T10:00:00.867Z,25.2
2019-06-15T10:05:00.873Z,27.2
2019-06-15T10:10:00.929Z,27.8
2019-06-15T10:15:00.902Z,27.5
2019-06-15T10:20:01.009Z,26.8
2019-06-15T10:25:00.900Z,25.9
2019-06-15T10:30:01.971Z,23.5
2019-06-15T10:35:00.880Z,22.9
2019-06-15T10:40:00.955Z,22.8
2019-06-15T10:45:00.885Z,21.7
2019-06-15T10:50:01.020Z,22.0
2019-06-15T10:55:00.881Z,21.2
2019-06-15T11:00:00.960Z,20.2
2019-06-15T11:05:00.893Z,20.0
2019-06-15T11:10:00.899Z,20.8
2019-06-15T11:15:00.900Z,20.9
2019-06-15T11:20:01.040Z,22.3
2019-06-15T11:25:00.904Z,22.1
2019-06-15T11:30:12.797Z,22.4
2019-06-15T11:35:00.939Z,22.5
2019-06-15T11:40:00.983Z,23.5
2019-06-15T11:45:00.911Z,24.0
2019-06-15T11:50:01.050Z,25.2
2019-06-15T11:55:00.926Z,24.4
2019-06-15T12:00:01.000Z,23.4
2019-06-15T12:05:00.948Z,20.3
2019-06-15T12:10:06.016Z,18.6
2019-06-15T12:15:00.928Z,16.8
2019-06-15T12:20:01.062Z,16.7
2019-06-15T12:25:00.944Z,15.9
2019-06-15T12:30:06.013Z,17.0
2019-06-15T12:35:00.942Z,16.4
2019-06-15T12:40:01.012Z,16.7
2019-06-15T12:45:00.961Z,16.3
2019-06-15T12:50:01.082Z,16.6
2019-06-15T12:55:00.959Z,15.9
2019-06-15T13:00:01.026Z,16.5
2019-06-15T13:05:01.030Z,16.3
2019-06-15T13:10:01.118Z,16.0
2019-06-15T13:15:02.002Z,15.6
2019-06-15T13:20:01.095Z,16.1
2019-06-15T13:25:00.975Z,15.4
2019-06-15T13:30:01.033Z,15.1
2019-06-15T13:35:00.968Z,15.3
2019-06-15T13:40:01.038Z,15.6
2019-06-15T13:45:00.979Z,15.4
2019-06-15T13:50:01.112Z,14.9
2019-06-15T13:55:00.987Z,15.9
2019-06-15T14:00:01.041Z,16.1
2019-06-15T14:05:00.980Z,15.7
2019-06-15T14:10:01.059Z,16.1
2019-06-15T14:15:00.982Z,16.5
2019-06-15T14:20:00.991Z,15.8
2019-06-15T14:25:01.030Z,16.0
2019-06-15T14:30:01.071Z,16.8
2019-06-15T14:35:00.999Z,16.4
2019-06-15T14:40:01.077Z,17.0
2019-06-15T14:45:01.028Z,18.0
2019-06-15T14:50:01.120Z,17.1
2019-06-15T14:55:01.030Z,17.5
2019-06-15T15:00:04.874Z,18.3
2019-06-15T15:05:01.016Z,18.4
2019-06-15T15:10:01.016Z,18.1
2019-06-15T15:15:01.018Z,19.0
2019-06-15T15:20:03.855Z,19.2
2019-06-15T15:30:01.091Z,18.9
2019-06-15T15:35:01.030Z,19.3
2019-06-15T15:40:01.104Z,19.1
2019-06-15T15:45:01.049Z,18.6
2019-06-15T15:50:01.042Z,18.1
2019-06-15T15:55:01.040Z,19.0
2019-06-15T16:00:01.055Z,18.8
2019-06-15T16:05:01.090Z,19.8
2019-06-15T16:10:01.128Z,20.5
2019-06-15T16:15:01.021Z,20.8
2019-06-15T16:20:01.092Z,20.7
2019-06-15T16:30:01.121Z,20.8
2019-06-15T16:35:01.034Z,21.2
2019-06-15T16:40:01.135Z,21.9
2019-06-15T16:45:01.036Z,22.3
2019-06-15T16:50:01.207Z,22.6
2019-06-15T16:55:01.080Z,22.8
2019-06-15T17:00:01.145Z,23.6
2019-06-15T17:05:01.087Z,25.1
2019-06-15T17:10:01.184Z,26.7
2019-06-15T17:15:01.084Z,29.0
2019-06-15T17:20:01.209Z,29.3
2019-06-15T17:25:01.055Z,29.0
2019-06-15T17:30:01.156Z,28.1
2019-06-15T17:35:01.095Z,25.7
2019-06-15T17:40:01.176Z,21.6
2019-06-15T17:45:01.093Z,18.7
2019-06-15T17:50:01.234Z,15.9
2019-06-15T17:55:01.110Z,13.3
2019-06-15T18:00:01.172Z,12.3
2019-06-15T18:05:01.113Z,13.3
2019-06-15T18:10:01.175Z,14.2
2019-06-15T18:15:02.132Z,15.2
2019-06-15T18:20:01.166Z,16.9
2019-06-15T18:25:01.112Z,18.1
2019-06-15T18:30:01.247Z,18.1
2019-06-15T18:35:01.113Z,17.7
2019-06-15T18:40:01.178Z,17.5
2019-06-15T18:45:01.110Z,16.6
2019-06-15T18:50:01.192Z,15.8
2019-06-15T18:56:01.100Z,15.0
2019-06-15T19:01:01.236Z,15.6
2019-06-15T19:11:01.242Z,15.4
2019-06-15T19:16:01.119Z,15.2
2019-06-15T19:21:01.185Z,15.0
2019-06-15T19:27:01.100Z,14.8
2019-06-15T19:32:01.163Z,14.6
2019-06-15T19:37:01.249Z,15.2
2019-06-15T19:42:01.268Z,15.8
2019-06-15T19:47:01.108Z,16.8
2019-06-15T19:52:01.247Z,18.1
2019-06-15T19:57:01.103Z,20.1
2019-06-15T20:02:01.163Z,21.2
2019-06-15T20:07:01.105Z,22.3
2019-06-15T20:12:01.176Z,24.6
2019-06-15T20:17:01.115Z,25.4
2019-06-15T20:22:01.241Z,26.1
2019-06-15T20:27:01.117Z,26.4
2019-06-15T20:32:01.230Z,27.2
2019-06-15T20:37:01.099Z,25.7
2019-06-15T20:42:01.205Z,25.8
2019-06-15T20:47:01.142Z,24.9
2019-06-15T20:52:01.242Z,23.9
2019-06-15T20:57:01.079Z,22.4
2019-06-15T21:02:01.246Z,22.5
2019-06-15T21:07:01.110Z,20.8
2019-06-15T21:12:01.158Z,18.5
2019-06-15T21:17:01.134Z,17.0
2019-06-15T21:22:01.116Z,15.0
2019-06-15T21:27:01.107Z,12.4
2019-06-15T21:32:01.235Z,10.5
2019-06-15T21:37:01.106Z,9.7
2019-06-15T21:42:01.231Z,9.1
2019-06-15T21:47:01.148Z,8.6
2019-06-15T21:52:01.172Z,8.4
2019-06-15T21:57:01.108Z,8.6
2019-06-15T22:02:01.253Z,8.5
2019-06-15T22:07:01.128Z,8.0
2019-06-15T22:12:01.105Z,8.4
2019-06-15T22:17:01.114Z,8.0
2019-06-15T22:22:01.157Z,7.9
2019-06-15T22:27:01.319Z,7.6
2019-06-15T22:32:01.174Z,7.9
2019-06-15T22:37:01.111Z,8.2
2019-06-15T22:42:01.172Z,8.8
2019-06-15T22:47:01.089Z,8.7
2019-06-15T22:52:01.228Z,9.1
2019-06-15T22:57:01.098Z,9.6
2019-06-15T23:07:01.231Z,10.8
2019-06-15T23:12:01.167Z,12.0
2019-06-15T23:17:01.108Z,12.6
2019-06-15T23:22:01.245Z,13.6
2019-06-15T23:27:01.228Z,14.2
2019-06-15T23:32:01.166Z,14.1
2019-06-15T23:37:01.091Z,14.4
2019-06-15T23:42:01.166Z,15.1
2019-06-15T23:52:01.166Z,15.4
2019-06-15T23:57:01.094Z,15.2
